sensor_id;sensor_type;location;lat;lon;timestamp;pressure;altitude;pressure_sealevel;temperature;humidity
64095;BME280;50353;51.420;5.682;2023-05-23T00:00:56;101548.22;;;16.82;84.71
64095;BME280;50353;51.420;5.682;2023-05-23T00:03:22;101542.66;;;17.21;82.94
64095;BME280;50353;51.420;5.682;2023-05-23T00:05:48;101540.25;;;17.18;83.53
64095;BME280;50353;51.420;5.682;2023-05-23T00:08:14;101546.78;;;16.54;85.20
64095;BME280;50353;51.420;5.682;2023-05-23T00:10:40;101546.97;;;16.75;86.06
64095;BME280;50353;51.420;5.682;2023-05-23T00:13:05;101550.22;;;16.92;84.79
64095;BME280;50353;51.420;5.682;2023-05-23T00:15:34;101553.13;;;16.64;86.69
64095;BME280;50353;51.420;5.682;2023-05-23T00:18:01;101550.53;;;16.51;86.32
64095;BME280;50353;51.420;5.682;2023-05-23T00:20:26;101558.59;;;16.63;86.13
64095;BME280;50353;51.420;5.682;2023-05-23T00:22:52;101554.38;;;16.96;84.02
64095;BME280;50353;51.420;5.682;2023-05-23T00:25:18;101560.69;;;17.42;82.17
64095;BME280;50353;51.420;5.682;2023-05-23T00:27:46;101561.69;;;17.05;83.06
64095;BME280;50353;51.420;5.682;2023-05-23T00:30:11;101562.44;;;16.83;84.32
64095;BME280;50353;51.420;5.682;2023-05-23T00:32:36;101556.84;;;17.10;82.01
64095;BME280;50353;51.420;5.682;2023-05-23T00:35:02;101559.25;;;17.02;82.11
64095;BME280;50353;51.420;5.682;2023-05-23T00:37:28;101564.03;;;16.85;81.63
64095;BME280;50353;51.420;5.682;2023-05-23T00:39:53;101562.53;;;17.05;80.65
64095;BME280;50353;51.420;5.682;2023-05-23T00:42:18;101564.97;;;17.09;80.05
64095;BME280;50353;51.420;5.682;2023-05-23T00:44:44;101562.44;;;17.07;80.63
64095;BME280;50353;51.420;5.682;2023-05-23T00:47:09;101561.56;;;17.06;79.79
64095;BME280;50353;51.420;5.682;2023-05-23T00:49:37;101574.31;;;17.03;79.27
64095;BME280;50353;51.420;5.682;2023-05-23T00:52:03;101574.75;;;16.72;80.14
64095;BME280;50353;51.420;5.682;2023-05-23T00:54:29;101573.34;;;16.55;81.95
64095;BME280;50353;51.420;5.682;2023-05-23T00:56:58;101572.69;;;16.65;79.32
64095;BME280;50353;51.420;5.682;2023-05-23T00:59:24;101584.31;;;16.64;79.91
64095;BME280;50353;51.420;5.682;2023-05-23T01:01:50;101585.78;;;16.68;78.08
64095;BME280;50353;51.420;5.682;2023-05-23T01:04:17;101586.34;;;16.60;79.22
64095;BME280;50353;51.420;5.682;2023-05-23T01:06:44;101592.41;;;16.38;80.28
64095;BME280;50353;51.420;5.682;2023-05-23T01:09:16;101591.53;;;16.75;78.82
64095;BME280;50353;51.420;5.682;2023-05-23T01:15:05;101585.88;;;16.42;80.62
64095;BME280;50353;51.420;5.682;2023-05-23T01:17:58;101578.63;;;16.68;79.51
64095;BME280;50353;51.420;5.682;2023-05-23T01:20:48;101582.34;;;17.14;76.85
64095;BME280;50353;51.420;5.682;2023-05-23T01:28:36;101582.94;;;16.34;79.76
64095;BME280;50353;51.420;5.682;2023-05-23T01:31:03;101593.63;;;16.21;80.33
64095;BME280;50353;51.420;5.682;2023-05-23T01:33:31;101595.38;;;15.96;81.41
64095;BME280;50353;51.420;5.682;2023-05-23T01:36:00;101590.38;;;15.92;81.67
64095;BME280;50353;51.420;5.682;2023-05-23T01:38:27;101592.84;;;16.32;80.90
64095;BME280;50353;51.420;5.682;2023-05-23T01:40:52;101585.59;;;16.82;78.70
64095;BME280;50353;51.420;5.682;2023-05-23T01:43:19;101596.25;;;15.97;80.86
64095;BME280;50353;51.420;5.682;2023-05-23T01:45:44;101593.25;;;16.14;81.84
64095;BME280;50353;51.420;5.682;2023-05-23T01:48:10;101599.16;;;16.55;80.01
64095;BME280;50353;51.420;5.682;2023-05-23T01:50:36;101603.44;;;16.20;80.94
64095;BME280;50353;51.420;5.682;2023-05-23T01:53:02;101601.06;;;15.92;82.37
64095;BME280;50353;51.420;5.682;2023-05-23T01:55:28;101608.38;;;16.14;82.10
64095;BME280;50353;51.420;5.682;2023-05-23T01:57:55;101598.22;;;16.19;81.12
64095;BME280;50353;51.420;5.682;2023-05-23T02:00:22;101604.09;;;16.48;80.17
64095;BME280;50353;51.420;5.682;2023-05-23T02:02:47;101598.81;;;16.35;79.80
64095;BME280;50353;51.420;5.682;2023-05-23T02:05:12;101600.56;;;16.23;81.29
64095;BME280;50353;51.420;5.682;2023-05-23T02:07:38;101611.50;;;16.45;80.71
64095;BME280;50353;51.420;5.682;2023-05-23T02:10:06;101612.44;;;17.05;77.87
64095;BME280;50353;51.420;5.682;2023-05-23T02:12:32;101611.63;;;16.67;78.34
64095;BME280;50353;51.420;5.682;2023-05-23T02:14:57;101618.47;;;16.96;77.91
64095;BME280;50353;51.420;5.682;2023-05-23T02:17:22;101620.25;;;16.71;78.26
64095;BME280;50353;51.420;5.682;2023-05-23T02:19:48;101620.13;;;15.98;82.52
64095;BME280;50353;51.420;5.682;2023-05-23T02:22:13;101628.53;;;16.55;80.17
64095;BME280;50353;51.420;5.682;2023-05-23T02:24:39;101620.56;;;16.05;82.38
64095;BME280;50353;51.420;5.682;2023-05-23T02:27:05;101622.69;;;16.00;82.71
64095;BME280;50353;51.420;5.682;2023-05-23T02:29:30;101625.91;;;16.05;82.41
64095;BME280;50353;51.420;5.682;2023-05-23T02:31:55;101625.66;;;16.08;81.76
64095;BME280;50353;51.420;5.682;2023-05-23T02:34:20;101635.16;;;16.12;82.58
64095;BME280;50353;51.420;5.682;2023-05-23T02:36:46;101635.47;;;16.20;80.96
64095;BME280;50353;51.420;5.682;2023-05-23T02:39:11;101633.34;;;15.61;83.93
64095;BME280;50353;51.420;5.682;2023-05-23T02:41:37;101640.28;;;15.77;83.58
64095;BME280;50353;51.420;5.682;2023-05-23T02:44:02;101629.47;;;16.17;81.39
64095;BME280;50353;51.420;5.682;2023-05-23T02:46:28;101630.34;;;16.17;80.60
64095;BME280;50353;51.420;5.682;2023-05-23T02:48:53;101633.69;;;15.82;82.84
64095;BME280;50353;51.420;5.682;2023-05-23T02:51:18;101626.81;;;16.17;82.43
64095;BME280;50353;51.420;5.682;2023-05-23T02:53:44;101626.47;;;16.34;81.16
64095;BME280;50353;51.420;5.682;2023-05-23T02:56:09;101623.22;;;16.05;81.76
64095;BME280;50353;51.420;5.682;2023-05-23T02:58:34;101628.34;;;16.08;81.37
64095;BME280;50353;51.420;5.682;2023-05-23T03:01:03;101623.63;;;15.73;83.55
64095;BME280;50353;51.420;5.682;2023-05-23T03:03:28;101630.47;;;15.64;84.66
64095;BME280;50353;51.420;5.682;2023-05-23T03:05:58;101624.59;;;15.98;82.89
64095;BME280;50353;51.420;5.682;2023-05-23T03:08:23;101631.44;;;15.76;83.41
64095;BME280;50353;51.420;5.682;2023-05-23T03:10:49;101636.63;;;15.65;84.18
64095;BME280;50353;51.420;5.682;2023-05-23T03:13:15;101630.69;;;16.00;82.38
64095;BME280;50353;51.420;5.682;2023-05-23T03:15:40;101632.97;;;15.80;83.09
64095;BME280;50353;51.420;5.682;2023-05-23T03:18:06;101642.63;;;15.68;84.43
64095;BME280;50353;51.420;5.682;2023-05-23T03:20:31;101641.47;;;15.85;83.26
64095;BME280;50353;51.420;5.682;2023-05-23T03:22:57;101642.41;;;15.59;84.23
64095;BME280;50353;51.420;5.682;2023-05-23T03:25:22;101644.63;;;15.65;84.08
64095;BME280;50353;51.420;5.682;2023-05-23T03:27:47;101646.34;;;15.53;84.78
64095;BME280;50353;51.420;5.682;2023-05-23T03:30:13;101646.25;;;15.67;83.29
64095;BME280;50353;51.420;5.682;2023-05-23T03:32:38;101651.19;;;15.86;83.18
64095;BME280;50353;51.420;5.682;2023-05-23T03:35:03;101654.75;;;15.60;83.63
64095;BME280;50353;51.420;5.682;2023-05-23T03:37:29;101661.38;;;15.67;83.12
64095;BME280;50353;51.420;5.682;2023-05-23T03:39:54;101657.66;;;15.69;82.97
64095;BME280;50353;51.420;5.682;2023-05-23T03:42:19;101661.16;;;15.70;83.14
64095;BME280;50353;51.420;5.682;2023-05-23T03:44:45;101660.41;;;15.42;83.60
64095;BME280;50353;51.420;5.682;2023-05-23T03:47:10;101658.63;;;16.07;81.22
64095;BME280;50353;51.420;5.682;2023-05-23T03:49:35;101675.44;;;15.56;82.66
64095;BME280;50353;51.420;5.682;2023-05-23T03:52:01;101677.34;;;15.54;83.74
64095;BME280;50353;51.420;5.682;2023-05-23T03:54:26;101672.78;;;15.69;83.96
64095;BME280;50353;51.420;5.682;2023-05-23T03:56:51;101666.13;;;15.89;82.37
64095;BME280;50353;51.420;5.682;2023-05-23T03:59:17;101672.16;;;15.65;82.74
64095;BME280;50353;51.420;5.682;2023-05-23T04:01:42;101669.13;;;15.04;85.75
64095;BME280;50353;51.420;5.682;2023-05-23T04:04:08;101667.44;;;15.56;85.29
64095;BME280;50353;51.420;5.682;2023-05-23T04:06:33;101682.44;;;15.44;85.48
64095;BME280;50353;51.420;5.682;2023-05-23T04:08:58;101676.59;;;15.12;85.78
64095;BME280;50353;51.420;5.682;2023-05-23T04:11:24;101682.81;;;15.25;86.37
64095;BME280;50353;51.420;5.682;2023-05-23T04:13:49;101683.88;;;15.63;84.07
64095;BME280;50353;51.420;5.682;2023-05-23T04:16:16;101677.66;;;15.49;85.05
64095;BME280;50353;51.420;5.682;2023-05-23T04:18:41;101677.88;;;15.59;83.76
64095;BME280;50353;51.420;5.682;2023-05-23T04:21:07;101680.47;;;15.74;83.30
64095;BME280;50353;51.420;5.682;2023-05-23T04:23:32;101676.13;;;16.11;81.99
64095;BME280;50353;51.420;5.682;2023-05-23T04:25:58;101683.72;;;15.92;82.77
64095;BME280;50353;51.420;5.682;2023-05-23T04:28:25;101686.72;;;15.60;83.62
64095;BME280;50353;51.420;5.682;2023-05-23T04:30:50;101685.44;;;15.52;84.44
64095;BME280;50353;51.420;5.682;2023-05-23T04:33:16;101682.09;;;15.89;83.05
64095;BME280;50353;51.420;5.682;2023-05-23T04:35:42;101687.97;;;16.07;82.31
64095;BME280;50353;51.420;5.682;2023-05-23T04:38:07;101695.56;;;16.13;82.32
64095;BME280;50353;51.420;5.682;2023-05-23T04:40:33;101694.69;;;16.00;80.98
64095;BME280;50353;51.420;5.682;2023-05-23T04:42:58;101697.38;;;16.00;82.56
64095;BME280;50353;51.420;5.682;2023-05-23T04:45:23;101691.06;;;15.88;82.96
64095;BME280;50353;51.420;5.682;2023-05-23T04:47:50;101695.44;;;15.89;83.27
64095;BME280;50353;51.420;5.682;2023-05-23T04:50:18;101697.09;;;15.77;84.24
64095;BME280;50353;51.420;5.682;2023-05-23T04:52:46;101698.84;;;16.17;82.49
64095;BME280;50353;51.420;5.682;2023-05-23T04:55:11;101704.28;;;16.15;81.88
64095;BME280;50353;51.420;5.682;2023-05-23T04:57:37;101709.00;;;15.99;82.60
64095;BME280;50353;51.420;5.682;2023-05-23T05:00:03;101702.91;;;16.10;82.85
64095;BME280;50353;51.420;5.682;2023-05-23T05:02:34;101706.22;;;15.47;84.24
64095;BME280;50353;51.420;5.682;2023-05-23T05:05:00;101707.63;;;16.06;82.62
64095;BME280;50353;51.420;5.682;2023-05-23T05:07:26;101718.09;;;15.69;83.84
64095;BME280;50353;51.420;5.682;2023-05-23T05:09:53;101716.97;;;15.46;84.93
64095;BME280;50353;51.420;5.682;2023-05-23T05:12:18;101718.38;;;15.92;83.36
64095;BME280;50353;51.420;5.682;2023-05-23T05:14:43;101720.88;;;15.67;84.62
64095;BME280;50353;51.420;5.682;2023-05-23T05:17:09;101718.41;;;15.64;84.76
64095;BME280;50353;51.420;5.682;2023-05-23T05:19:34;101725.44;;;15.25;85.65
64095;BME280;50353;51.420;5.682;2023-05-23T05:21:59;101731.19;;;15.46;84.85
64095;BME280;50353;51.420;5.682;2023-05-23T05:24:25;101732.47;;;15.53;nan
64095;BME280;50353;51.420;5.682;2023-05-23T05:26:51;101734.91;;;15.57;85.24
64095;BME280;50353;51.420;5.682;2023-05-23T05:29:17;101737.59;;;16.22;81.78
64095;BME280;50353;51.420;5.682;2023-05-23T05:31:42;101734.63;;;15.61;83.12
64095;BME280;50353;51.420;5.682;2023-05-23T05:34:09;101732.13;;;15.45;85.17
64095;BME280;50353;51.420;5.682;2023-05-23T05:36:35;101733.19;;;15.55;84.54
64095;BME280;50353;51.420;5.682;2023-05-23T05:39:00;101741.78;;;15.74;84.38
64095;BME280;50353;51.420;5.682;2023-05-23T05:41:26;101739.94;;;15.88;83.60
64095;BME280;50353;51.420;5.682;2023-05-23T05:43:51;101735.25;;;15.65;83.25
64095;BME280;50353;51.420;5.682;2023-05-23T05:46:16;101741.44;;;15.93;82.01
64095;BME280;50353;51.420;5.682;2023-05-23T05:48:42;101736.84;;;15.54;82.58
64095;BME280;50353;51.420;5.682;2023-05-23T05:51:07;101737.91;;;15.65;82.32
64095;BME280;50353;51.420;5.682;2023-05-23T05:53:32;101747.50;;;15.95;81.46
64095;BME280;50353;51.420;5.682;2023-05-23T05:55:59;101746.22;;;16.00;81.69
64095;BME280;50353;51.420;5.682;2023-05-23T05:58:24;101755.19;;;15.59;82.11
64095;BME280;50353;51.420;5.682;2023-05-23T06:00:49;101762.22;;;15.87;81.74
64095;BME280;50353;51.420;5.682;2023-05-23T06:03:15;101758.47;;;16.03;81.27
64095;BME280;50353;51.420;5.682;2023-05-23T06:05:40;101767.00;;;15.55;82.60
64095;BME280;50353;51.420;5.682;2023-05-23T06:08:06;101765.44;;;15.93;81.01
64095;BME280;50353;51.420;5.682;2023-05-23T06:10:32;101765.75;;;15.06;84.48
64095;BME280;50353;51.420;5.682;2023-05-23T06:12:58;101770.72;;;15.52;83.81
64095;BME280;50353;51.420;5.682;2023-05-23T06:15:24;101771.47;;;14.85;85.48
64095;BME280;50353;51.420;5.682;2023-05-23T06:17:50;101783.41;;;15.21;83.30
64095;BME280;50353;51.420;5.682;2023-05-23T06:20:15;101789.25;;;15.41;82.06
64095;BME280;50353;51.420;5.682;2023-05-23T06:22:40;101783.34;;;14.94;84.72
64095;BME280;50353;51.420;5.682;2023-05-23T06:25:06;101793.91;;;14.96;85.06
64095;BME280;50353;51.420;5.682;2023-05-23T06:27:32;101791.06;;;14.84;85.90
64095;BME280;50353;51.420;5.682;2023-05-23T06:29:57;101785.09;;;14.81;85.35
64095;BME280;50353;51.420;5.682;2023-05-23T06:32:22;101794.16;;;14.19;87.81
64095;BME280;50353;51.420;5.682;2023-05-23T06:34:47;101803.41;;;14.57;87.50
64095;BME280;50353;51.420;5.682;2023-05-23T06:37:13;101793.50;;;15.02;85.05
64095;BME280;50353;51.420;5.682;2023-05-23T06:39:38;101800.19;;;14.80;85.14
64095;BME280;50353;51.420;5.682;2023-05-23T06:42:03;101797.59;;;15.08;84.50
64095;BME280;50353;51.420;5.682;2023-05-23T06:44:29;101801.72;;;15.41;83.00
64095;BME280;50353;51.420;5.682;2023-05-23T06:46:54;101809.78;;;15.39;83.01
64095;BME280;50353;51.420;5.682;2023-05-23T06:49:22;101803.97;;;14.33;85.26
64095;BME280;50353;51.420;5.682;2023-05-23T06:51:48;101818.56;;;14.26;87.45
64095;BME280;50353;51.420;5.682;2023-05-23T06:54:14;101818.06;;;14.49;86.48
64095;BME280;50353;51.420;5.682;2023-05-23T06:56:39;101819.06;;;14.61;85.69
64095;BME280;50353;51.420;5.682;2023-05-23T06:59:04;101834.09;;;14.48;85.62
64095;BME280;50353;51.420;5.682;2023-05-23T07:01:30;101832.34;;;14.77;85.10
64095;BME280;50353;51.420;5.682;2023-05-23T07:03:55;101817.84;;;15.10;83.48
64095;BME280;50353;51.420;5.682;2023-05-23T07:06:20;101836.19;;;14.57;84.38
64095;BME280;50353;51.420;5.682;2023-05-23T07:08:46;101839.56;;;15.04;82.03
64095;BME280;50353;51.420;5.682;2023-05-23T07:11:11;101837.97;;;14.73;83.71
64095;BME280;50353;51.420;5.682;2023-05-23T07:13:36;101839.09;;;14.68;83.01
64095;BME280;50353;51.420;5.682;2023-05-23T07:16:02;101841.03;;;14.36;84.54
64095;BME280;50353;51.420;5.682;2023-05-23T07:18:27;101841.75;;;14.68;83.52
64095;BME280;50353;51.420;5.682;2023-05-23T07:20:52;101840.91;;;14.37;84.56
64095;BME280;50353;51.420;5.682;2023-05-23T07:23:18;101846.41;;;14.79;83.92
64095;BME280;50353;51.420;5.682;2023-05-23T07:25:43;101845.28;;;14.83;82.46
64095;BME280;50353;51.420;5.682;2023-05-23T07:28:09;101845.66;;;14.92;82.83
64095;BME280;50353;51.420;5.682;2023-05-23T07:30:35;101848.66;;;15.29;81.03
64095;BME280;50353;51.420;5.682;2023-05-23T07:33:00;101850.47;;;15.14;80.67
64095;BME280;50353;51.420;5.682;2023-05-23T07:35:25;101846.56;;;15.61;78.22
64095;BME280;50353;51.420;5.682;2023-05-23T07:37:51;101855.38;;;15.49;78.62
64095;BME280;50353;51.420;5.682;2023-05-23T07:40:17;101851.78;;;15.21;78.29
64095;BME280;50353;51.420;5.682;2023-05-23T07:42:42;101864.03;;;15.38;77.12
64095;BME280;50353;51.420;5.682;2023-05-23T07:45:08;101859.63;;;15.10;77.58
64095;BME280;50353;51.420;5.682;2023-05-23T07:47:33;101859.72;;;15.50;76.90
64095;BME280;50353;51.420;5.682;2023-05-23T07:49:59;101861.81;;;15.17;75.42
64095;BME280;50353;51.420;5.682;2023-05-23T07:52:27;101864.16;;;15.22;75.84
64095;BME280;50353;51.420;5.682;2023-05-23T07:54:52;101862.31;;;15.37;74.71
64095;BME280;50353;51.420;5.682;2023-05-23T07:57:18;101869.03;;;15.57;74.71
64095;BME280;50353;51.420;5.682;2023-05-23T07:59:43;101866.16;;;15.33;74.65
64095;BME280;50353;51.420;5.682;2023-05-23T08:02:08;101875.16;;;15.45;73.64
64095;BME280;50353;51.420;5.682;2023-05-23T08:04:33;101871.25;;;15.50;72.42
64095;BME280;50353;51.420;5.682;2023-05-23T08:06:59;101878.59;;;15.32;73.04
64095;BME280;50353;51.420;5.682;2023-05-23T08:09:25;101871.88;;;15.96;71.11
64095;BME280;50353;51.420;5.682;2023-05-23T08:11:51;101878.84;;;16.11;68.93
64095;BME280;50353;51.420;5.682;2023-05-23T08:14:16;101874.16;;;15.60;67.88
64095;BME280;50353;51.420;5.682;2023-05-23T08:16:41;101879.44;;;16.02;67.36
64095;BME280;50353;51.420;5.682;2023-05-23T08:19:07;101874.19;;;15.87;66.64
64095;BME280;50353;51.420;5.682;2023-05-23T08:21:33;101883.72;;;16.04;65.17
64095;BME280;50353;51.420;5.682;2023-05-23T08:23:58;101882.59;;;15.81;64.56
64095;BME280;50353;51.420;5.682;2023-05-23T08:26:24;101890.13;;;16.55;63.41
64095;BME280;50353;51.420;5.682;2023-05-23T08:28:50;101880.06;;;16.33;63.15
64095;BME280;50353;51.420;5.682;2023-05-23T08:31:15;101891.41;;;16.62;64.03
64095;BME280;50353;51.420;5.682;2023-05-23T08:33:40;101886.22;;;16.20;64.56
64095;BME280;50353;51.420;5.682;2023-05-23T08:36:06;101893.84;;;16.78;64.41
64095;BME280;50353;51.420;5.682;2023-05-23T08:38:31;101896.09;;;16.59;65.24
64095;BME280;50353;51.420;5.682;2023-05-23T08:40:59;101899.00;;;16.81;65.37
64095;BME280;50353;51.420;5.682;2023-05-23T08:43:25;101901.00;;;16.39;65.79
64095;BME280;50353;51.420;5.682;2023-05-23T08:45:51;101900.38;;;16.08;66.30
64095;BME280;50353;51.420;5.682;2023-05-23T08:48:19;101898.50;;;15.68;67.79
64095;BME280;50353;51.420;5.682;2023-05-23T08:50:46;101903.56;;;16.53;66.16
64095;BME280;50353;51.420;5.682;2023-05-23T08:53:14;101900.53;;;15.92;66.15
64095;BME280;50353;51.420;5.682;2023-05-23T08:55:45;101903.09;;;15.94;67.61
64095;BME280;50353;51.420;5.682;2023-05-23T08:58:10;101900.19;;;16.11;66.58
64095;BME280;50353;51.420;5.682;2023-05-23T09:00:37;101905.19;;;16.43;65.47
64095;BME280;50353;51.420;5.682;2023-05-23T09:03:04;101906.00;;;16.31;66.30
64095;BME280;50353;51.420;5.682;2023-05-23T09:05:29;101908.75;;;16.95;65.11
64095;BME280;50353;51.420;5.682;2023-05-23T09:07:54;101917.28;;;16.21;66.73
64095;BME280;50353;51.420;5.682;2023-05-23T09:10:21;101917.88;;;16.39;66.67
64095;BME280;50353;51.420;5.682;2023-05-23T09:12:46;101913.84;;;16.19;66.69
64095;BME280;50353;51.420;5.682;2023-05-23T09:15:12;101915.69;;;16.32;66.33
64095;BME280;50353;51.420;5.682;2023-05-23T09:17:37;101919.06;;;16.74;64.96
64095;BME280;50353;51.420;5.682;2023-05-23T09:20:12;101923.09;;;16.41;66.73
64095;BME280;50353;51.420;5.682;2023-05-23T09:22:38;101926.41;;;16.04;67.65
64095;BME280;50353;51.420;5.682;2023-05-23T09:25:04;101928.25;;;15.89;68.96
64095;BME280;50353;51.420;5.682;2023-05-23T09:27:30;101927.13;;;15.79;69.31
64095;BME280;50353;51.420;5.682;2023-05-23T09:29:55;101928.41;;;15.74;70.04
64095;BME280;50353;51.420;5.682;2023-05-23T09:32:20;101932.53;;;16.60;69.10
64095;BME280;50353;51.420;5.682;2023-05-23T09:34:56;101928.81;;;15.95;69.72
64095;BME280;50353;51.420;5.682;2023-05-23T09:37:33;101931.09;;;16.41;68.04
64095;BME280;50353;51.420;5.682;2023-05-23T09:40:00;101928.84;;;16.35;67.04
64095;BME280;50353;51.420;5.682;2023-05-23T09:42:31;101926.78;;;17.30;64.78
64095;BME280;50353;51.420;5.682;2023-05-23T09:44:57;101931.91;;;17.33;63.24
64095;BME280;50353;51.420;5.682;2023-05-23T09:47:22;101925.69;;;17.33;63.17
64095;BME280;50353;51.420;5.682;2023-05-23T09:49:48;101939.81;;;17.35;62.87
64095;BME280;50353;51.420;5.682;2023-05-23T09:52:13;101935.47;;;16.95;63.17
64095;BME280;50353;51.420;5.682;2023-05-23T09:54:39;101941.41;;;17.24;59.95
64095;BME280;50353;51.420;5.682;2023-05-23T09:57:09;101934.34;;;17.36;59.48
64095;BME280;50353;51.420;5.682;2023-05-23T09:59:38;101926.69;;;17.56;60.32
64095;BME280;50353;51.420;5.682;2023-05-23T10:02:10;101941.59;;;17.47;58.81
64095;BME280;50353;51.420;5.682;2023-05-23T10:04:36;101927.03;;;17.51;59.15
64095;BME280;50353;51.420;5.682;2023-05-23T10:07:12;101945.91;;;17.37;59.05
64095;BME280;50353;51.420;5.682;2023-05-23T10:09:41;101934.75;;;17.80;58.51
64095;BME280;50353;51.420;5.682;2023-05-23T10:15:01;101945.84;;;18.00;59.28
64095;BME280;50353;51.420;5.682;2023-05-23T10:20:31;101943.59;;;17.56;55.92
64095;BME280;50353;51.420;5.682;2023-05-23T10:23:01;101945.78;;;17.76;57.74
64095;BME280;50353;51.420;5.682;2023-05-23T10:25:27;101939.50;;;17.77;56.91
64095;BME280;50353;51.420;5.682;2023-05-23T10:27:58;101939.31;;;18.04;55.88
64095;BME280;50353;51.420;5.682;2023-05-23T10:30:27;101941.09;;;18.63;54.28
64095;BME280;50353;51.420;5.682;2023-05-23T10:32:55;101942.06;;;18.27;53.82
64095;BME280;50353;51.420;5.682;2023-05-23T10:35:41;101940.38;;;17.88;55.51
64095;BME280;50353;51.420;5.682;2023-05-23T10:38:29;101933.16;;;18.62;55.40
64095;BME280;50353;51.420;5.682;2023-05-23T10:41:15;101936.31;;;18.55;55.06
64095;BME280;50353;51.420;5.682;2023-05-23T10:43:55;101942.19;;;18.01;54.59
64095;BME280;50353;51.420;5.682;2023-05-23T10:46:21;101945.09;;;18.22;54.50
64095;BME280;50353;51.420;5.682;2023-05-23T10:48:47;101945.78;;;18.13;55.01
64095;BME280;50353;51.420;5.682;2023-05-23T10:51:13;101941.75;;;18.07;54.11
64095;BME280;50353;51.420;5.682;2023-05-23T10:53:44;101947.97;;;18.43;53.27
64095;BME280;50353;51.420;5.682;2023-05-23T10:56:18;101957.63;;;19.04;51.98
64095;BME280;50353;51.420;5.682;2023-05-23T10:58:51;101940.50;;;18.82;51.30
64095;BME280;50353;51.420;5.682;2023-05-23T11:01:16;101948.00;;;19.58;50.41
64095;BME280;50353;51.420;5.682;2023-05-23T11:09:10;101936.69;;;20.31;49.94
64095;BME280;50353;51.420;5.682;2023-05-23T11:12:00;101944.84;;;20.62;47.23
64095;BME280;50353;51.420;5.682;2023-05-23T11:17:17;101924.34;;;21.13;48.27
64095;BME280;50353;51.420;5.682;2023-05-23T11:20:02;101942.19;;;20.29;47.42
64095;BME280;50353;51.420;5.682;2023-05-23T11:22:30;101946.47;;;19.76;46.66
64095;BME280;50353;51.420;5.682;2023-05-23T11:24:56;101926.88;;;19.53;47.47
64095;BME280;50353;51.420;5.682;2023-05-23T11:27:32;101935.16;;;20.17;45.16
64095;BME280;50353;51.420;5.682;2023-05-23T11:30:12;101936.69;;;20.94;43.93
64095;BME280;50353;51.420;5.682;2023-05-23T11:32:38;101944.03;;;20.50;45.34
64095;BME280;50353;51.420;5.682;2023-05-23T11:35:06;101939.22;;;20.11;45.42
64095;BME280;50353;51.420;5.682;2023-05-23T11:37:32;101944.25;;;19.93;46.36
64095;BME280;50353;51.420;5.682;2023-05-23T11:39:58;101947.63;;;19.51;48.16
64095;BME280;50353;51.420;5.682;2023-05-23T11:42:24;101949.88;;;20.76;44.70
64095;BME280;50353;51.420;5.682;2023-05-23T11:44:49;101948.22;;;21.06;43.89
64095;BME280;50353;51.420;5.682;2023-05-23T11:47:16;101945.00;;;19.95;46.39
64095;BME280;50353;51.420;5.682;2023-05-23T11:49:44;101943.00;;;20.83;45.88
64095;BME280;50353;51.420;5.682;2023-05-23T11:52:11;101954.56;;;20.74;44.34
64095;BME280;50353;51.420;5.682;2023-05-23T11:54:39;101945.41;;;20.44;44.70
64095;BME280;50353;51.420;5.682;2023-05-23T11:57:05;101942.34;;;19.72;44.86
64095;BME280;50353;51.420;5.682;2023-05-23T11:59:30;101952.09;;;20.50;45.06
64095;BME280;50353;51.420;5.682;2023-05-23T12:01:55;101946.56;;;21.15;45.70
64095;BME280;50353;51.420;5.682;2023-05-23T12:04:21;101947.03;;;21.30;41.51
64095;BME280;50353;51.420;5.682;2023-05-23T12:06:47;101948.22;;;21.06;42.35
64095;BME280;50353;51.420;5.682;2023-05-23T12:09:13;101958.47;;;20.91;43.91
64095;BME280;50353;51.420;5.682;2023-05-23T12:11:39;101948.81;;;20.88;42.77
64095;BME280;50353;51.420;5.682;2023-05-23T12:14:05;101955.44;;;20.42;42.76
64095;BME280;50353;51.420;5.682;2023-05-23T12:16:32;101953.69;;;20.94;42.29
64095;BME280;50353;51.420;5.682;2023-05-23T12:18:58;101951.75;;;21.37;41.84
64095;BME280;50353;51.420;5.682;2023-05-23T12:21:25;101955.28;;;21.78;42.52
64095;BME280;50353;51.420;5.682;2023-05-23T12:23:51;101958.34;;;20.71;42.62
64095;BME280;50353;51.420;5.682;2023-05-23T12:26:16;101955.84;;;21.63;41.83
64095;BME280;50353;51.420;5.682;2023-05-23T12:28:43;101953.41;;;20.98;42.40
64095;BME280;50353;51.420;5.682;2023-05-23T12:31:15;101953.88;;;21.03;44.63
64095;BME280;50353;51.420;5.682;2023-05-23T12:33:42;101947.72;;;21.22;43.06
64095;BME280;50353;51.420;5.682;2023-05-23T12:36:09;101962.03;;;21.32;43.78
64095;BME280;50353;51.420;5.682;2023-05-23T12:38:35;101960.75;;;21.26;41.51
64095;BME280;50353;51.420;5.682;2023-05-23T12:41:14;101956.16;;;20.44;44.82
64095;BME280;50353;51.420;5.682;2023-05-23T12:43:40;101953.22;;;20.15;44.57
64095;BME280;50353;51.420;5.682;2023-05-23T12:46:08;101958.66;;;20.36;43.37
64095;BME280;50353;51.420;5.682;2023-05-23T12:48:34;101961.41;;;20.46;42.60
64095;BME280;50353;51.420;5.682;2023-05-23T12:50:59;101957.13;;;19.44;44.13
64095;BME280;50353;51.420;5.682;2023-05-23T12:53:27;101968.47;;;19.82;44.11
64095;BME280;50353;51.420;5.682;2023-05-23T12:55:52;101966.25;;;19.87;43.68
64095;BME280;50353;51.420;5.682;2023-05-23T12:58:17;101970.16;;;20.48;42.69
64095;BME280;50353;51.420;5.682;2023-05-23T13:00:42;101965.03;;;20.23;45.03
64095;BME280;50353;51.420;5.682;2023-05-23T13:03:08;101975.53;;;19.83;43.91
64095;BME280;50353;51.420;5.682;2023-05-23T13:05:33;101979.09;;;19.38;43.68
64095;BME280;50353;51.420;5.682;2023-05-23T13:07:58;101971.53;;;19.43;44.85
64095;BME280;50353;51.420;5.682;2023-05-23T13:10:24;101967.13;;;20.20;43.08